Time;durP1;ratioP1;P1;durP2;ratioP2;P2;SDS_P1;SDS_P2;PMS_P1;PMS_P2;Temp;Humidity;BMP_temperature;BMP_pressure;BME280_temperature;BME280_humidity;BME280_pressure;Samples;Min_cycle;Max_cycle;Signal;HPM_P1;HPM_P2
2021/03/26 17:16:42;;;;;;;15.75;8.00;;;7.00;60.60;;;;;;5071967;28;20376;-93
2021/03/26 17:19:32;;;;;;;18.05;10.38;;;6.80;62.80;;;;;;5053460;28;20032;-92
2021/03/26 17:22:07;;;;;;;23.50;13.45;;;6.70;64.10;;;;;;5053439;28;20021;-91
2021/03/26 17:24:50;;;;;;;29.67;14.55;;;6.70;65.30;;;;;;5053264;28;20036;-93
2021/03/26 17:27:47;;;;;;;30.35;14.15;;;6.80;65.80;;;;;;5053245;28;20106;-93
2021/03/26 17:30:49;;;;;;;30.65;17.95;;;6.80;66.20;;;;;;5053156;28;20029;-92
2021/03/26 17:33:42;;;;;;;28.40;17.38;;;6.90;66.50;;;;;;5052969;28;20020;-93
2021/03/26 17:36:32;;;;;;;31.95;18.92;;;6.90;66.80;;;;;;5053086;28;20068;-93
2021/03/26 17:39:24;;;;;;;29.85;16.63;;;6.90;66.90;;;;;;5050753;28;20028;-92
2021/03/26 17:42:01;;;;;;;27.13;16.20;;;6.90;67.00;;;;;;5038019;28;20032;-93
2021/03/26 17:44:47;;;;;;;32.22;16.30;;;6.90;67.30;;;;;;5033069;28;20035;-92
2021/03/26 17:47:26;;;;;;;28.30;16.25;;;6.80;67.50;;;;;;5034576;28;20029;-92
2021/03/26 17:50:20;;;;;;;30.20;17.30;;;6.90;67.90;;;;;;5033646;28;20029;-92
2021/03/26 17:53:06;;;;;;;;;;;6.80;68.10;;;;;;5048293;28;20031;-96
2021/03/26 17:56:09;;;;;;;30.02;15.77;;;6.80;67.90;;;;;;5034462;28;19913;-93
2021/03/26 17:59:13;;;;;;;39.88;15.52;;;6.70;67.80;;;;;;5052758;28;20017;-93
2021/03/26 18:02:06;;;;;;;36.75;17.67;;;6.70;67.80;;;;;;5029742;28;20127;-93
2021/03/26 18:05:10;;;;;;;36.58;19.33;;;6.60;68.40;;;;;;5053194;28;20033;-93
2021/03/26 18:07:52;;;;;;;34.83;18.83;;;6.50;68.50;;;;;;5070591;28;20087;-91
2021/03/26 18:10:57;;;;;;;33.58;16.92;;;6.40;68.80;;;;;;5052800;28;20033;-92
2021/03/26 18:13:32;;;;;;;32.55;16.40;;;6.40;68.80;;;;;;5052373;28;20036;-93
2021/03/26 18:16:18;;;;;;;32.33;17.70;;;6.30;69.10;;;;;;5052317;28;20374;-92
2021/03/26 18:19:00;;;;;;;42.25;18.02;;;6.30;69.30;;;;;;5040440;28;20032;-93
2021/03/26 18:21:28;;;;;;;39.83;17.83;;;6.20;69.50;;;;;;5052746;28;20107;-92
2021/03/26 18:24:17;;;;;;;38.58;17.90;;;6.10;69.70;;;;;;5052919;28;20035;-93
2021/03/26 18:26:54;;;;;;;40.13;17.95;;;6.10;70.00;;;;;;5045304;28;20021;-92
2021/03/26 18:29:38;;;;;;;39.38;18.13;;;6.00;70.10;;;;;;5039438;28;20025;-91
2021/03/26 18:32:38;;;;;;;53.25;20.80;;;5.90;70.40;;;;;;5039458;28;20516;-93
2021/03/26 18:35:31;;;;;;;55.90;18.45;;;5.90;70.50;;;;;;5038762;28;20037;-92
2021/03/26 18:38:16;;;;;;;43.20;18.58;;;5.80;70.50;;;;;;5039106;28;20036;-93
2021/03/26 18:40:54;;;;;;;47.13;17.83;;;5.70;70.60;;;;;;5039054;28;20029;-93
2021/03/26 18:43:58;;;;;;;53.13;18.15;;;5.70;70.80;;;;;;5039150;28;20381;-93
2021/03/26 18:46:48;;;;;;;55.00;18.65;;;5.60;70.90;;;;;;5038785;28;20469;-94
2021/03/26 18:49:57;;;;;;;51.53;18.58;;;5.50;71.20;;;;;;5039026;28;20039;-94
2021/03/26 18:52:33;;;;;;;55.08;20.15;;;5.40;71.30;;;;;;5038923;28;20163;-94
2021/03/26 18:55:07;;;;;;;53.90;16.80;;;5.30;71.60;;;;;;5038765;28;20032;-93
2021/03/26 18:57:53;;;;;;;35.25;17.25;;;5.30;71.80;;;;;;5038843;28;20018;-94
2021/03/26 19:00:32;;;;;;;43.78;17.85;;;5.20;71.90;;;;;;5030850;28;20038;-94
2021/03/26 19:03:20;;;;;;;47.42;18.48;;;5.10;72.20;;;;;;5019005;28;20083;-92
2021/03/26 19:06:01;;;;;;;65.20;19.98;;;5.10;72.20;;;;;;5018853;28;20474;-93
2021/03/26 19:08:58;;;;;;;66.25;21.63;;;5.00;72.50;;;;;;5018719;28;20022;-93
2021/03/26 19:11:40;;;;;;;63.67;22.05;;;4.90;72.70;;;;;;5018604;28;20029;-94
2021/03/26 19:14:23;;;;;;;49.97;21.48;;;4.80;73.10;;;;;;5018342;28;20041;-92
2021/03/26 19:16:55;;;;;;;;;;;4.80;73.30;;;;;;5019102;28;20025;-91
2021/03/26 19:19:58;;;;;;;50.13;19.75;;;4.70;74.10;;;;;;5018467;28;20287;-93
2021/03/26 19:22:54;;;;;;;48.83;19.85;;;4.60;73.70;;;;;;5018397;28;20112;-92
2021/03/26 19:25:42;;;;;;;45.05;19.88;;;4.50;73.90;;;;;;5021599;28;20026;-92
2021/03/26 19:28:24;;;;;;;55.08;22.90;;;4.40;74.40;;;;;;5018967;28;20059;-94
2021/03/26 19:30:57;;;;;;;44.42;20.45;;;4.30;74.70;;;;;;5018391;28;20025;-91
2021/03/26 19:33:44;;;;;;;39.28;21.23;;;4.30;74.90;;;;;;5018299;28;20037;-92
2021/03/26 19:36:34;;;;;;;48.45;23.25;;;4.20;75.00;;;;;;5019633;28;20038;-91
2021/03/26 19:39:13;;;;;;;48.05;23.73;;;4.20;75.60;;;;;;5039646;28;20087;-92
2021/03/26 19:42:00;;;;;;;42.28;22.35;;;4.10;76.30;;;;;;5038214;28;20108;-91
